Time;durP1;ratioP1;P1;durP2;ratioP2;P2;SDS_P1;SDS_P2;PMS_P1;PMS_P2;Temp;Humidity;BMP_temperature;BMP_pressure;BME280_temperature;BME280_humidity;BME280_pressure;Samples;Min_cycle;Max_cycle;Signal;HPM_P1;HPM_P2
2022/01/04 00:01:38;;;;;;;4.97;4.47;;;7.80;99.90;;;;;;5055606;28;20565;-60
2022/01/04 00:04:08;;;;;;;5.10;4.00;;;7.80;99.90;;;;;;5053915;28;20528;-59
2022/01/04 00:06:35;;;;;;;6.00;4.00;;;7.70;99.90;;;;;;5051450;28;20963;-60
2022/01/04 00:09:04;;;;;;;4.67;4.27;;;7.70;99.90;;;;;;5055492;28;20803;-60
2022/01/04 00:11:44;;;;;;;7.13;5.43;;;7.70;99.90;;;;;;5052545;28;20488;-59
2022/01/04 00:14:12;;;;;;;5.77;3.90;;;7.70;99.90;;;;;;5055042;28;20450;-59
2022/01/04 00:16:42;;;;;;;4.10;3.40;;;7.70;99.90;;;;;;5054834;28;20458;-60
2022/01/04 00:19:09;;;;;;;4.30;3.90;;;7.70;99.90;;;;;;5055182;28;20738;-58
2022/01/04 00:21:36;;;;;;;5.00;4.40;;;7.70;99.90;;;;;;5054127;28;20462;-60
2022/01/04 00:24:04;;;;;;;5.23;4.73;;;7.70;99.90;;;;;;5054869;28;20458;-60
2022/01/04 00:26:31;;;;;;;8.17;4.90;;;7.70;99.90;;;;;;5054630;28;20850;-60
2022/01/04 00:28:58;;;;;;;5.37;4.50;;;7.70;99.90;;;;;;5054070;28;20503;-60
2022/01/04 00:31:27;;;;;;;4.50;4.07;;;7.80;99.90;;;;;;5054633;28;20466;-60
2022/01/04 00:33:54;;;;;;;5.50;4.33;;;7.80;99.90;;;;;;5055049;28;20547;-60
2022/01/04 00:36:26;;;;;;;5.50;4.17;;;7.70;99.90;;;;;;5055304;28;20463;-60
2022/01/04 00:38:53;;;;;;;5.40;4.03;;;7.60;99.90;;;;;;5054765;28;20469;-60
2022/01/04 00:41:20;;;;;;;6.90;4.20;;;7.60;99.90;;;;;;5054335;28;20527;-60
2022/01/04 00:43:47;;;;;;;3.80;3.47;;;7.60;99.90;;;;;;5054996;28;20556;-60
2022/01/04 00:46:17;;;;;;;3.50;3.20;;;7.60;99.90;;;;;;5055399;28;20494;-60
2022/01/04 00:51:32;;;;;;;2.73;2.50;;;7.50;99.90;;;;;;5054165;28;20449;-60
2022/01/04 00:53:59;;;;;;;3.13;2.83;;;7.50;99.90;;;;;;5053191;28;20458;-60
2022/01/04 00:56:29;;;;;;;2.87;2.57;;;7.40;99.90;;;;;;5055546;28;20475;-60
2022/01/04 00:58:56;;;;;;;3.23;2.93;;;7.40;99.90;;;;;;5055830;28;20560;-58
2022/01/04 01:01:24;;;;;;;3.70;2.73;;;7.40;99.90;;;;;;5053933;28;20466;-60
2022/01/04 01:03:54;;;;;;;3.00;2.70;;;7.40;99.90;;;;;;5055733;28;20469;-59
2022/01/04 01:06:24;;;;;;;5.53;3.27;;;7.40;99.90;;;;;;5053587;28;20951;-60
2022/01/04 01:08:51;;;;;;;3.10;2.80;;;7.40;99.90;;;;;;5055729;28;20973;-60
2022/01/04 01:11:24;;;;;;;3.40;3.10;;;7.40;99.90;;;;;;5055825;28;20485;-60
2022/01/04 01:13:51;;;;;;;4.07;3.60;;;7.40;99.90;;;;;;5055904;28;20466;-60
2022/01/04 01:16:20;;;;;;;4.37;3.97;;;7.50;99.90;;;;;;5055690;28;20511;-60
2022/01/04 01:18:47;;;;;;;4.20;3.80;;;7.40;99.90;;;;;;5055687;28;20462;-60
2022/01/04 01:21:16;;;;;;;6.17;4.20;;;7.40;99.90;;;;;;5055273;28;20498;-60
2022/01/04 01:23:43;;;;;;;6.00;4.53;;;7.40;99.90;;;;;;5055169;28;20932;-57
2022/01/04 01:26:10;;;;;;;5.47;4.90;;;7.40;99.90;;;;;;5054522;28;20617;-60
2022/01/04 01:28:38;;;;;;;5.80;5.07;;;7.40;99.90;;;;;;5056921;28;20462;-59
2022/01/04 01:31:05;;;;;;;9.97;6.47;;;7.40;99.90;;;;;;5059786;28;20500;-60
2022/01/04 01:33:32;;;;;;;8.47;7.43;;;7.40;99.90;;;;;;5059632;28;20961;-60
2022/01/04 01:35:59;;;;;;;9.50;8.03;;;7.40;99.90;;;;;;5059814;28;20465;-60
2022/01/04 01:38:31;;;;;;;10.27;7.40;;;7.40;99.90;;;;;;5059829;28;20462;-60
2022/01/04 01:41:01;;;;;;;9.47;7.73;;;7.40;99.90;;;;;;5059399;28;20466;-60
2022/01/04 01:43:29;;;;;;;9.60;8.10;;;7.40;99.90;;;;;;5059059;28;20915;-60
2022/01/04 01:45:56;;;;;;;8.83;7.93;;;7.40;99.90;;;;;;5058802;28;20509;-60
2022/01/04 01:48:23;;;;;;;9.90;7.97;;;7.40;99.90;;;;;;5059355;28;20477;-60
2022/01/04 01:50:50;;;;;;;9.50;7.70;;;7.40;99.90;;;;;;5059467;28;20524;-60
2022/01/04 01:53:18;;;;;;;8.70;7.77;;;7.40;99.90;;;;;;5059635;28;20466;-60
2022/01/04 01:55:46;;;;;;;9.57;8.60;;;7.40;99.90;;;;;;5059900;28;20502;-60
2022/01/04 01:58:13;;;;;;;8.50;7.60;;;7.40;99.90;;;;;;5059156;28;20466;-60
2022/01/04 02:00:42;;;;;;;11.10;8.27;;;7.30;99.90;;;;;;5060114;28;20907;-60
2022/01/04 02:03:09;;;;;;;9.57;8.50;;;7.30;99.90;;;;;;5059379;28;20846;-60
2022/01/04 02:05:40;;;;;;;9.87;8.43;;;7.30;99.90;;;;;;5059932;28;20462;-60
2022/01/04 02:08:08;;;;;;;8.47;7.60;;;7.20;99.90;;;;;;5059055;28;20560;-60
2022/01/04 02:10:36;;;;;;;8.10;7.23;;;7.10;99.90;;;;;;5059095;28;20473;-60
2022/01/04 02:13:04;;;;;;;9.30;6.97;;;7.10;99.90;;;;;;5018954;28;20481;-60
2022/01/04 02:15:33;;;;;;;7.73;6.93;;;7.10;99.90;;;;;;5020047;28;20467;-60
2022/01/04 02:18:03;;;;;;;7.13;6.13;;;7.10;99.90;;;;;;5019308;28;20837;-58
2022/01/04 02:20:33;;;;;;;7.40;6.10;;;7.20;99.90;;;;;;5019288;28;20935;-60
2022/01/04 02:23:01;;;;;;;6.43;5.10;;;7.20;99.90;;;;;;5019137;28;20518;-60
2022/01/04 02:25:28;;;;;;;4.50;4.10;;;7.20;99.90;;;;;;5019338;28;20468;-60
2022/01/04 02:27:56;;;;;;;4.50;4.10;;;7.20;99.90;;;;;;5019252;28;20504;-60
2022/01/04 02:30:23;;;;;;;5.10;4.23;;;7.10;99.90;;;;;;5018862;28;20463;-61
2022/01/04 02:32:51;;;;;;;7.50;4.70;;;7.20;99.90;;;;;;5020234;28;20468;-61
2022/01/04 02:35:20;;;;;;;4.97;4.10;;;7.20;99.90;;;;;;5019410;28;20555;-61
2022/01/04 02:37:49;;;;;;;7.97;4.60;;;7.20;99.90;;;;;;5019779;28;20464;-61
2022/01/04 02:40:16;;;;;;;4.43;3.90;;;7.20;99.90;;;;;;5017571;28;20542;-61
2022/01/04 02:42:43;;;;;;;4.07;3.67;;;7.20;99.90;;;;;;5019942;28;20533;-61
2022/01/04 02:45:11;;;;;;;4.07;3.67;;;7.20;99.90;;;;;;5019460;28;20496;-61
2022/01/04 02:47:38;;;;;;;4.00;3.60;;;7.20;99.90;;;;;;5019117;28;20562;-60
2022/01/04 02:50:06;;;;;;;4.17;3.87;;;7.20;99.90;;;;;;5019651;28;20468;-59
2022/01/04 02:52:36;;;;;;;3.93;3.43;;;7.20;99.90;;;;;;5019590;28;20495;-60
2022/01/04 02:55:05;;;;;;;4.00;3.60;;;7.20;99.90;;;;;;5019908;28;20464;-60
2022/01/04 02:57:33;;;;;;;3.70;3.33;;;7.20;99.90;;;;;;5019628;28;20476;-59
2022/01/04 03:00:00;;;;;;;4.53;4.00;;;7.10;99.90;;;;;;5019102;28;20467;-59
2022/01/04 03:02:28;;;;;;;5.07;3.60;;;7.20;99.90;;;;;;5019661;28;20517;-59
2022/01/04 03:04:55;;;;;;;5.00;4.50;;;7.20;99.90;;;;;;5019462;28;20510;-59
2022/01/04 03:07:22;;;;;;;4.50;4.10;;;7.10;99.90;;;;;;5019644;28;20491;-59
2022/01/04 03:09:49;;;;;;;5.53;4.67;;;7.10;99.90;;;;;;5019640;28;20953;-60
2022/01/04 03:12:17;;;;;;;6.00;5.40;;;7.10;99.90;;;;;;5047208;28;20486;-60
2022/01/04 03:14:44;;;;;;;5.37;4.87;;;7.10;99.90;;;;;;5059810;28;20502;-57
2022/01/04 03:17:11;;;;;;;5.17;4.23;;;7.10;99.90;;;;;;5060212;28;20512;-60
2022/01/04 03:19:38;;;;;;;6.73;4.43;;;7.10;99.90;;;;;;5060411;28;20462;-60
2022/01/04 03:22:06;;;;;;;4.70;4.30;;;7.10;99.90;;;;;;5059391;28;20458;-60
2022/01/04 03:24:33;;;;;;;5.47;4.67;;;7.00;99.90;;;;;;5060016;28;20891;-60
2022/01/04 03:27:01;;;;;;;5.50;4.10;;;7.00;99.90;;;;;;5059787;28;20521;-60
2022/01/04 03:29:32;;;;;;;4.57;4.10;;;7.10;99.90;;;;;;5059939;28;20497;-59
2022/01/04 03:31:59;;;;;;;4.70;4.20;;;7.00;99.90;;;;;;5059644;28;20472;-59
2022/01/04 03:34:26;;;;;;;4.00;3.60;;;7.00;99.90;;;;;;5059149;28;20590;-60
2022/01/04 03:36:54;;;;;;;3.83;3.40;;;7.10;99.90;;;;;;5059457;28;20891;-60
2022/01/04 03:39:21;;;;;;;3.70;3.40;;;7.00;99.90;;;;;;5059243;28;20468;-60
2022/01/04 03:41:53;;;;;;;4.07;3.67;;;7.00;99.90;;;;;;5058618;28;20469;-60
2022/01/04 03:44:20;;;;;;;4.53;3.67;;;7.00;99.90;;;;;;5058689;28;20473;-60
2022/01/04 03:46:51;;;;;;;4.70;3.60;;;6.90;99.90;;;;;;5058048;28;20516;-60
2022/01/04 03:49:17;;;;;;;3.60;3.03;;;6.90;99.90;;;;;;5058402;28;20466;-60
2022/01/04 03:51:44;;;;;;;4.30;3.07;;;6.80;99.90;;;;;;5057309;28;20854;-59
2022/01/04 03:54:12;;;;;;;4.23;3.83;;;6.80;99.90;;;;;;5058353;28;20523;-60
2022/01/04 03:56:39;;;;;;;3.33;3.03;;;6.80;99.90;;;;;;5057948;28;20458;-60
2022/01/04 03:59:06;;;;;;;4.87;3.70;;;6.90;99.90;;;;;;5057845;28;20512;-61
2022/01/04 04:01:33;;;;;;;3.90;3.10;;;6.90;99.90;;;;;;5053604;28;20511;-60
2022/01/04 04:04:02;;;;;;;3.40;3.10;;;6.90;99.90;;;;;;5036053;28;20471;-60
2022/01/04 04:06:29;;;;;;;3.70;3.40;;;6.90;99.90;;;;;;5035592;28;20483;-60
2022/01/04 04:08:57;;;;;;;4.53;3.17;;;6.90;99.90;;;;;;5045074;28;20960;-61
2022/01/04 04:11:24;;;;;;;5.10;3.83;;;6.90;99.90;;;;;;5042631;28;20487;-60
2022/01/04 04:13:51;;;;;;;4.27;3.87;;;6.90;99.90;;;;;;5036305;28;20471;-60
2022/01/04 04:16:18;;;;;;;4.13;3.83;;;6.90;99.90;;;;;;5035934;28;20509;-60
2022/01/04 04:18:45;;;;;;;4.90;4.40;;;6.90;99.90;;;;;;5037317;28;20459;-60
2022/01/04 04:21:13;;;;;;;5.20;4.63;;;7.00;99.90;;;;;;5037477;28;20556;-60
2022/01/04 04:23:43;;;;;;;4.97;4.40;;;7.00;99.90;;;;;;5036520;28;20891;-60
2022/01/04 04:26:10;;;;;;;5.80;4.47;;;7.00;99.90;;;;;;5035932;28;20976;-60
2022/01/04 04:28:37;;;;;;;5.70;4.50;;;7.00;99.90;;;;;;5036469;28;20530;-61
2022/01/04 04:31:05;;;;;;;4.47;4.07;;;6.90;99.90;;;;;;5036967;28;20442;-61
2022/01/04 04:33:33;;;;;;;4.97;4.57;;;7.00;99.90;;;;;;5037132;28;20550;-61
2022/01/04 04:36:00;;;;;;;5.73;5.10;;;7.00;99.90;;;;;;5036726;28;20541;-60
2022/01/04 04:38:28;;;;;;;7.63;4.57;;;7.00;99.90;;;;;;5036831;28;20459;-60
2022/01/04 04:40:56;;;;;;;6.20;5.37;;;7.00;99.90;;;;;;5037229;28;20740;-58
2022/01/04 04:43:23;;;;;;;6.43;5.40;;;7.00;99.90;;;;;;5037614;28;20442;-60
2022/01/04 04:45:51;;;;;;;7.50;5.40;;;7.00;99.90;;;;;;5037701;28;20463;-60
2022/01/04 04:48:18;;;;;;;6.10;5.37;;;7.00;99.90;;;;;;5038187;28;20531;-60
2022/01/04 04:50:45;;;;;;;6.63;6.03;;;7.00;99.90;;;;;;5038510;28;20896;-59
2022/01/04 04:53:12;;;;;;;7.63;6.43;;;7.00;99.90;;;;;;5038164;28;20569;-59
2022/01/04 04:55:40;;;;;;;7.60;6.33;;;7.00;99.90;;;;;;5037894;28;20463;-59
2022/01/04 04:58:07;;;;;;;6.53;5.93;;;6.90;99.90;;;;;;5038046;28;20434;-60
2022/01/04 05:00:34;;;;;;;8.33;7.17;;;6.90;99.90;;;;;;5037293;28;20485;-60
2022/01/04 05:03:01;;;;;;;8.30;7.00;;;6.90;99.90;;;;;;5037258;28;20525;-60
2022/01/04 05:05:28;;;;;;;7.97;6.77;;;6.90;99.90;;;;;;5040692;28;20471;-60
2022/01/04 05:07:55;;;;;;;8.50;7.30;;;6.90;99.90;;;;;;5040913;28;20924;-59
2022/01/04 05:10:22;;;;;;;8.47;7.17;;;6.90;99.90;;;;;;5041111;28;20509;-60
2022/01/04 05:12:53;;;;;;;8.07;7.03;;;6.90;99.90;;;;;;5058794;28;20485;-60
2022/01/04 05:15:23;;;;;;;9.10;7.80;;;6.90;99.90;;;;;;5060949;28;21002;-61
2022/01/04 05:17:50;;;;;;;10.97;9.23;;;7.00;99.90;;;;;;5060806;28;20468;-61
2022/01/04 05:20:17;;;;;;;9.90;8.30;;;7.00;99.90;;;;;;5060768;28;20437;-60
2022/01/04 05:22:44;;;;;;;10.80;8.73;;;6.90;99.90;;;;;;5060661;28;20462;-61
2022/01/04 05:25:11;;;;;;;9.50;8.40;;;6.90;99.90;;;;;;5060720;28;20462;-60
2022/01/04 05:27:38;;;;;;;12.03;9.47;;;7.00;99.90;;;;;;5060481;28;20490;-60
2022/01/04 05:30:08;;;;;;;12.60;9.40;;;6.90;99.90;;;;;;5060806;28;20560;-60
2022/01/04 05:32:35;;;;;;;16.60;10.33;;;6.90;99.90;;;;;;5060760;28;20557;-60
2022/01/04 05:35:02;;;;;;;11.97;9.17;;;6.90;99.90;;;;;;5060499;28;20458;-60
2022/01/04 05:37:29;;;;;;;12.93;10.03;;;7.00;99.90;;;;;;5061178;28;20458;-60
2022/01/04 05:40:02;;;;;;;10.70;9.47;;;6.90;99.90;;;;;;5060989;28;20485;-60
2022/01/04 05:42:29;;;;;;;13.50;9.30;;;6.90;99.90;;;;;;5060892;28;20944;-60
2022/01/04 05:44:58;;;;;;;11.10;8.70;;;6.90;99.90;;;;;;5060159;28;20454;-60
2022/01/04 05:47:26;;;;;;;12.33;9.37;;;6.90;99.90;;;;;;5060575;28;20497;-60
2022/01/04 05:49:54;;;;;;;11.33;9.00;;;6.90;99.90;;;;;;5060465;28;20506;-61
2022/01/04 05:52:21;;;;;;;12.07;9.20;;;6.90;99.90;;;;;;5060293;28;20564;-61
2022/01/04 05:54:49;;;;;;;12.10;10.10;;;6.90;99.90;;;;;;5060040;28;20902;-61
2022/01/04 05:57:16;;;;;;;14.33;10.93;;;6.90;99.90;;;;;;5060182;28;20560;-61
2022/01/04 05:59:43;;;;;;;18.53;12.83;;;6.90;99.90;;;;;;5060354;28;20466;-61
2022/01/04 06:02:10;;;;;;;16.47;14.07;;;6.90;99.90;;;;;;5060546;28;20891;-61
2022/01/04 06:04:38;;;;;;;15.50;12.80;;;6.90;99.90;;;;;;5060320;28;20461;-61
2022/01/04 06:07:05;;;;;;;15.90;10.60;;;6.90;99.90;;;;;;5060047;28;20529;-61
2022/01/04 06:09:41;;;;;;;10.93;8.80;;;6.90;99.90;;;;;;5060022;28;20901;-61
2022/01/04 06:14:59;;;;;;;11.40;8.23;;;6.80;99.90;;;;;;5059224;28;20572;-61
2022/01/04 06:17:29;;;;;;;9.83;8.40;;;6.80;99.90;;;;;;5059844;28;20505;-61
2022/01/04 06:19:58;;;;;;;9.07;8.03;;;6.80;99.90;;;;;;5060017;28;20466;-61
2022/01/04 06:22:26;;;;;;;11.97;9.90;;;6.90;99.90;;;;;;5059761;28;20915;-61
2022/01/04 06:24:53;;;;;;;9.47;8.40;;;6.80;99.90;;;;;;5059362;28;20466;-61
2022/01/04 06:27:20;;;;;;;10.83;9.73;;;6.80;99.90;;;;;;5055205;28;20524;-61
2022/01/04 06:29:48;;;;;;;8.83;7.63;;;6.80;99.90;;;;;;5051965;28;20766;-61
2022/01/04 06:32:16;;;;;;;10.80;8.73;;;6.80;99.90;;;;;;5057902;28;20953;-61
2022/01/04 06:34:44;;;;;;;10.10;9.00;;;6.80;99.90;;;;;;5058903;28;20458;-61
2022/01/04 06:37:14;;;;;;;10.20;8.50;;;6.80;99.90;;;;;;5059311;28;20508;-61
2022/01/04 06:39:41;;;;;;;10.20;8.77;;;6.80;99.90;;;;;;5059161;28;20455;-61
2022/01/04 06:42:11;;;;;;;9.67;8.67;;;6.80;99.90;;;;;;5059978;28;20455;-62
2022/01/04 06:44:38;;;;;;;10.47;8.93;;;6.80;99.90;;;;;;5059289;28;20504;-62
2022/01/04 06:47:06;;;;;;;12.83;9.47;;;6.80;99.90;;;;;;5058790;28;20527;-63
2022/01/04 06:49:33;;;;;;;12.30;9.70;;;6.80;99.90;;;;;;5059352;28;20579;-62
2022/01/04 06:52:00;;;;;;;13.80;10.90;;;6.80;99.90;;;;;;5059271;28;20462;-62
2022/01/04 06:54:28;;;;;;;10.70;9.30;;;6.80;99.90;;;;;;5059282;28;20860;-62
2022/01/04 06:56:55;;;;;;;11.40;9.03;;;6.80;99.90;;;;;;5058810;28;20466;-62
2022/01/04 06:59:22;;;;;;;11.93;8.80;;;6.80;99.90;;;;;;5058946;28;20551;-62
2022/01/04 07:01:49;;;;;;;10.97;9.70;;;6.70;99.90;;;;;;5058897;28;20462;-62
2022/01/04 07:04:16;;;;;;;17.37;12.10;;;6.70;99.90;;;;;;5059175;28;20458;-62
2022/01/04 07:06:43;;;;;;;17.67;11.17;;;6.70;99.90;;;;;;5058357;28;20494;-62
2022/01/04 07:09:10;;;;;;;34.03;19.17;;;6.70;99.90;;;;;;5058632;28;20611;-62
2022/01/04 07:11:39;;;;;;;20.47;13.10;;;6.60;99.90;;;;;;5054738;28;20494;-62
2022/01/04 07:14:06;;;;;;;11.33;9.07;;;6.70;99.90;;;;;;5058122;28;20466;-62
2022/01/04 07:16:38;;;;;;;14.90;10.17;;;6.70;99.90;;;;;;5058533;28;20470;-62
2022/01/04 07:19:05;;;;;;;13.07;8.97;;;6.60;99.90;;;;;;5056759;28;20709;-62
2022/01/04 07:21:34;;;;;;;12.73;8.27;;;6.70;99.90;;;;;;5057297;28;20462;-62
2022/01/04 07:24:01;;;;;;;14.57;9.10;;;6.70;99.90;;;;;;5057722;28;20550;-62
2022/01/04 07:26:28;;;;;;;11.13;8.90;;;6.70;99.90;;;;;;5055926;28;20489;-61
2022/01/04 07:28:56;;;;;;;11.50;8.20;;;6.70;99.90;;;;;;5056135;28;20490;-61
2022/01/04 07:31:24;;;;;;;11.20;9.00;;;6.70;99.90;;;;;;5056328;28;20559;-61
2022/01/04 07:33:51;;;;;;;10.97;9.53;;;6.80;99.90;;;;;;5058006;28;20454;-61
2022/01/04 07:36:18;;;;;;;14.20;10.93;;;6.80;99.90;;;;;;5057665;28;20475;-61
2022/01/04 07:38:47;;;;;;;13.23;11.03;;;6.80;99.90;;;;;;5057837;28;20450;-61
2022/01/04 07:41:14;;;;;;;11.57;9.03;;;6.80;99.90;;;;;;5057808;28;20454;-61
2022/01/04 07:43:41;;;;;;;13.00;10.60;;;6.90;99.90;;;;;;5056611;28;20496;-61
2022/01/04 07:46:10;;;;;;;11.03;9.70;;;6.80;99.90;;;;;;5057589;28;20461;-61
2022/01/04 07:48:37;;;;;;;11.20;9.77;;;6.80;99.90;;;;;;5058250;28;20521;-61
2022/01/04 07:51:04;;;;;;;14.10;11.10;;;6.80;99.90;;;;;;5058128;28;20498;-61
2022/01/04 07:53:31;;;;;;;13.53;9.83;;;6.80;99.90;;;;;;5057861;28;20908;-61
2022/01/04 07:55:59;;;;;;;13.50;10.83;;;6.80;99.90;;;;;;5058266;28;20489;-61
2022/01/04 07:58:26;;;;;;;13.07;10.20;;;6.80;99.90;;;;;;5058080;28;20497;-61
2022/01/04 08:00:53;;;;;;;10.20;9.20;;;6.80;99.90;;;;;;5056848;28;20550;-62
2022/01/04 08:03:21;;;;;;;12.23;10.20;;;6.80;99.90;;;;;;5056355;28;20828;-62
2022/01/04 08:05:48;;;;;;;12.90;10.23;;;6.80;99.90;;;;;;5056175;28;20903;-62
2022/01/04 08:08:15;;;;;;;14.80;10.90;;;6.90;99.90;;;;;;5042144;28;20491;-62
2022/01/04 08:10:44;;;;;;;12.47;10.50;;;6.80;99.90;;;;;;5053730;28;20461;-62
2022/01/04 08:13:11;;;;;;;11.80;9.80;;;6.80;99.90;;;;;;5056641;28;20466;-62
2022/01/04 08:15:38;;;;;;;11.73;10.50;;;6.80;99.90;;;;;;5056633;28;20462;-62
2022/01/04 08:18:05;;;;;;;14.70;10.73;;;6.80;99.90;;;;;;5056868;28;20458;-62
2022/01/04 08:20:34;;;;;;;11.93;10.13;;;6.80;99.90;;;;;;5057795;28;20558;-62
2022/01/04 08:23:02;;;;;;;12.67;10.53;;;6.80;99.90;;;;;;5057284;28;20470;-62
2022/01/04 08:25:30;;;;;;;13.20;10.83;;;6.80;99.90;;;;;;5057524;28;20466;-62
2022/01/04 08:27:57;;;;;;;12.00;10.33;;;6.80;99.90;;;;;;5057161;28;20532;-62
2022/01/04 08:30:24;;;;;;;14.53;10.30;;;6.80;99.90;;;;;;5056676;28;20454;-62
2022/01/04 08:32:53;;;;;;;13.03;10.70;;;6.80;99.90;;;;;;5056755;28;20892;-62
2022/01/04 08:35:21;;;;;;;12.87;10.50;;;6.80;99.90;;;;;;5056975;28;20462;-62
2022/01/04 08:37:52;;;;;;;13.20;10.53;;;6.80;99.90;;;;;;5056668;28;20560;-62
2022/01/04 08:40:20;;;;;;;13.80;11.90;;;6.90;99.90;;;;;;5056766;28;20524;-62
2022/01/04 08:42:50;;;;;;;12.23;10.37;;;6.90;99.90;;;;;;5056496;28;20466;-62
2022/01/04 08:45:17;;;;;;;14.10;11.07;;;6.90;99.90;;;;;;5057042;28;20493;-62
2022/01/04 08:47:44;;;;;;;11.90;10.20;;;7.00;99.90;;;;;;5057202;28;20436;-61
2022/01/04 08:50:14;;;;;;;12.50;10.47;;;7.00;99.90;;;;;;5056967;28;20529;-61
2022/01/04 08:52:41;;;;;;;13.63;11.30;;;6.90;99.90;;;;;;5057036;28;20872;-61
2022/01/04 08:55:10;;;;;;;14.23;11.63;;;7.00;99.90;;;;;;5057398;28;20497;-61
2022/01/04 08:57:38;;;;;;;15.33;13.63;;;6.90;99.90;;;;;;5056564;28;20497;-62
2022/01/04 09:00:06;;;;;;;22.63;17.10;;;6.90;99.90;;;;;;5057459;28;20738;-61
2022/01/04 09:02:33;;;;;;;26.47;19.40;;;6.90;99.90;;;;;;5057252;28;20454;-62
2022/01/04 09:05:00;;;;;;;20.30;16.37;;;6.90;99.90;;;;;;5056253;28;20966;-62
2022/01/04 09:07:28;;;;;;;16.90;13.20;;;7.00;99.90;;;;;;5055449;28;20458;-62
2022/01/04 09:09:55;;;;;;;14.40;11.73;;;7.00;99.90;;;;;;5056236;28;20514;-61
2022/01/04 09:12:27;;;;;;;15.00;12.93;;;7.10;99.90;;;;;;5056893;28;20492;-62
2022/01/04 09:14:58;;;;;;;13.40;11.27;;;7.10;99.90;;;;;;5056912;28;20465;-61
2022/01/04 09:20:22;;;;;;;13.00;10.57;;;7.10;99.90;;;;;;4982836;28;20425;-62
2022/01/04 09:22:49;;;;;;;15.00;11.70;;;7.00;99.90;;;;;;5041323;28;20816;-61
2022/01/04 09:25:16;;;;;;;16.77;12.57;;;7.00;99.90;;;;;;5056414;28;20626;-61
2022/01/04 09:27:47;;;;;;;14.17;11.60;;;7.00;99.90;;;;;;5057075;28;20466;-61
2022/01/04 09:30:14;;;;;;;17.13;14.30;;;7.00;99.90;;;;;;5055640;28;20498;-61
2022/01/04 09:32:41;;;;;;;27.13;15.67;;;7.10;99.90;;;;;;5053270;28;20462;-62
2022/01/04 09:35:11;;;;;;;30.67;14.03;;;7.10;99.90;;;;;;5055606;28;20934;-62
2022/01/04 09:37:38;;;;;;;17.33;13.87;;;7.20;99.90;;;;;;5055426;28;20773;-61
2022/01/04 09:40:06;;;;;;;16.50;11.93;;;7.10;99.90;;;;;;5055218;28;20454;-62
2022/01/04 09:42:37;;;;;;;17.00;12.80;;;7.10;99.90;;;;;;5056269;28;20501;-62
2022/01/04 09:45:09;;;;;;;14.97;12.00;;;7.10;99.90;;;;;;5056218;28;20472;-62
2022/01/04 09:47:36;;;;;;;15.20;9.33;;;7.10;99.90;;;;;;5056014;28;20470;-62
2022/01/04 09:50:08;;;;;;;13.20;11.80;;;7.10;99.90;;;;;;5057710;28;20490;-62
2022/01/04 09:52:49;;;;;;;11.97;10.67;;;7.10;99.90;;;;;;5060321;28;20470;-62
2022/01/04 09:55:24;;;;;;;11.37;9.10;;;7.10;99.90;;;;;;5059841;28;20462;-62
2022/01/04 09:57:51;;;;;;;10.57;8.73;;;7.20;99.90;;;;;;5060191;28;20469;-62
2022/01/04 10:00:23;;;;;;;9.10;8.10;;;7.30;99.90;;;;;;5059062;28;20454;-62
2022/01/04 10:02:51;;;;;;;6.73;5.93;;;7.30;99.90;;;;;;5058998;28;20468;-62
2022/01/04 10:05:20;;;;;;;8.37;7.10;;;7.20;99.90;;;;;;5056986;28;20846;-62
2022/01/04 10:07:50;;;;;;;12.43;6.70;;;7.20;99.90;;;;;;5059153;28;20466;-62
2022/01/04 10:10:19;;;;;;;8.30;6.50;;;7.20;99.90;;;;;;5060016;28;20496;-62
2022/01/04 10:12:52;;;;;;;7.53;6.73;;;7.30;99.90;;;;;;5059274;28;20486;-62
2022/01/04 10:15:35;;;;;;;8.47;6.80;;;7.20;99.90;;;;;;5053486;28;20462;-62
2022/01/04 10:18:23;;;;;;;7.63;6.20;;;7.30;99.90;;;;;;5058378;28;20502;-62
2022/01/04 10:20:53;;;;;;;7.97;6.30;;;7.20;99.90;;;;;;5058332;28;20883;-62
2022/01/04 10:23:22;;;;;;;7.13;6.30;;;7.20;99.90;;;;;;5059731;28;20884;-62
2022/01/04 10:25:50;;;;;;;7.40;5.73;;;7.20;99.90;;;;;;5059716;28;20541;-62
2022/01/04 10:28:30;;;;;;;7.77;6.40;;;7.20;99.90;;;;;;5059661;28;20493;-62
2022/01/04 10:31:09;;;;;;;8.67;6.43;;;7.20;99.90;;;;;;5060452;28;20853;-62
2022/01/04 10:33:36;;;;;;;10.57;7.87;;;7.10;99.90;;;;;;5060543;28;20787;-62
2022/01/04 10:36:11;;;;;;;7.70;6.90;;;7.00;99.90;;;;;;5060578;28;20876;-62
2022/01/04 10:38:40;;;;;;;9.10;7.73;;;7.00;99.90;;;;;;5058643;28;20812;-62
2022/01/04 10:41:10;;;;;;;10.67;8.73;;;7.00;99.90;;;;;;5059264;28;20753;-62
2022/01/04 10:43:40;;;;;;;12.33;8.43;;;7.00;99.90;;;;;;5060406;28;20486;-62
2022/01/04 10:46:12;;;;;;;11.27;8.73;;;7.00;99.90;;;;;;5060067;28;20512;-62
2022/01/04 10:48:41;;;;;;;10.03;7.90;;;7.00;99.90;;;;;;5059799;28;20458;-62
2022/01/04 10:51:10;;;;;;;11.70;9.00;;;7.00;99.90;;;;;;5059906;28;20752;-62
2022/01/04 10:53:39;;;;;;;10.20;9.03;;;6.90;99.90;;;;;;5059823;28;20499;-62
2022/01/04 10:56:08;;;;;;;11.90;9.47;;;7.00;99.90;;;;;;5060648;28;20462;-62
2022/01/04 10:58:39;;;;;;;10.30;8.90;;;6.90;99.90;;;;;;5060130;28;20489;-62
2022/01/04 11:01:10;;;;;;;10.20;9.20;;;6.90;99.90;;;;;;5057393;28;20905;-62
2022/01/04 11:03:39;;;;;;;11.47;10.30;;;7.00;99.90;;;;;;5059086;28;20555;-62
2022/01/04 11:06:10;;;;;;;11.07;9.10;;;7.00;99.90;;;;;;5057098;28;20462;-61
2022/01/04 11:08:38;;;;;;;12.70;10.20;;;7.00;99.90;;;;;;5059126;28;20481;-62
2022/01/04 11:11:06;;;;;;;10.70;8.90;;;6.90;99.90;;;;;;5057988;28;20524;-62
2022/01/04 11:13:33;;;;;;;11.47;8.20;;;6.90;99.90;;;;;;5058424;28;20494;-62
2022/01/04 11:16:01;;;;;;;9.67;8.60;;;7.00;99.90;;;;;;5058389;28;20516;-62
2022/01/04 11:18:31;;;;;;;10.13;8.70;;;6.90;99.90;;;;;;5058849;28;20921;-62
2022/01/04 11:20:58;;;;;;;8.87;7.97;;;6.90;99.90;;;;;;5058212;28;20461;-62
2022/01/04 11:23:27;;;;;;;9.77;7.37;;;6.90;99.90;;;;;;5058614;28;20463;-62
2022/01/04 11:25:55;;;;;;;9.60;7.10;;;7.00;99.90;;;;;;5058392;28;20462;-63
2022/01/04 11:28:24;;;;;;;10.23;8.20;;;6.90;99.90;;;;;;5057439;28;20879;-62
2022/01/04 11:31:24;;;;;;;8.80;7.93;;;7.00;99.90;;;;;;5058258;28;20516;-62
2022/01/04 11:34:03;;;;;;;9.27;8.20;;;6.90;99.90;;;;;;5025450;28;20548;-62
2022/01/04 11:36:36;;;;;;;9.60;8.67;;;7.00;99.90;;;;;;5044598;28;20470;-62
2022/01/04 11:39:27;;;;;;;11.33;9.97;;;7.00;99.90;;;;;;5057820;28;20462;-63
2022/01/04 11:41:55;;;;;;;12.13;10.60;;;7.00;99.90;;;;;;5039924;28;20533;-62
2022/01/04 11:44:27;;;;;;;13.70;12.40;;;7.00;99.90;;;;;;5054990;28;20466;-61
2022/01/04 11:47:04;;;;;;;14.37;12.40;;;7.10;99.90;;;;;;5055935;28;20462;-61
2022/01/04 11:49:34;;;;;;;15.77;12.63;;;7.20;99.90;;;;;;5055393;28;20928;-61
2022/01/04 11:52:02;;;;;;;14.23;12.73;;;7.10;99.90;;;;;;5057840;28;20477;-61
2022/01/04 11:54:31;;;;;;;19.97;14.83;;;7.10;99.90;;;;;;5057970;28;20519;-61
2022/01/04 11:57:00;;;;;;;18.03;14.80;;;7.10;99.90;;;;;;5056733;28;20867;-61
2022/01/04 11:59:32;;;;;;;17.03;15.23;;;7.10;99.90;;;;;;5057487;28;20465;-61
2022/01/04 12:02:26;;;;;;;22.73;15.97;;;7.10;99.90;;;;;;5057523;28;20589;-61
2022/01/04 12:05:01;;;;;;;22.80;14.73;;;7.20;99.90;;;;;;5057307;28;20918;-61
2022/01/04 12:07:45;;;;;;;21.30;15.93;;;7.20;99.90;;;;;;5057057;28;20461;-61
2022/01/04 12:10:32;;;;;;;20.40;17.20;;;7.20;99.90;;;;;;5057729;28;20497;-61
2022/01/04 12:13:00;;;;;;;20.03;17.50;;;7.20;99.90;;;;;;5044781;28;20495;-61
2022/01/04 12:15:57;;;;;;;21.20;16.70;;;7.30;99.90;;;;;;5054376;28;20459;-61
2022/01/04 12:19:01;;;;;;;19.60;16.23;;;7.40;99.90;;;;;;5046410;28;20767;-61
2022/01/04 12:21:35;;;;;;;19.27;16.63;;;7.30;99.90;;;;;;5056954;28;20767;-61
2022/01/04 12:24:03;;;;;;;18.07;14.97;;;7.30;99.90;;;;;;5057379;28;20933;-62
2022/01/04 12:26:35;;;;;;;21.03;17.20;;;7.30;99.90;;;;;;5057098;28;20462;-61
2022/01/04 12:29:31;;;;;;;22.83;17.33;;;7.20;99.90;;;;;;5056085;28;20458;-61
2022/01/04 12:32:09;;;;;;;20.10;17.40;;;7.30;99.90;;;;;;5054649;28;20488;-61
2022/01/04 12:35:06;;;;;;;18.80;16.20;;;7.20;99.90;;;;;;5049096;28;20458;-61
2022/01/04 12:37:38;;;;;;;19.27;15.90;;;7.20;99.90;;;;;;5056787;28;20470;-61
2022/01/04 12:40:12;;;;;;;19.43;16.10;;;7.20;99.90;;;;;;5056888;28;20545;-61
2022/01/04 12:42:44;;;;;;;24.20;18.37;;;7.20;99.90;;;;;;5056571;28;20459;-62
2022/01/04 12:45:16;;;;;;;19.50;16.37;;;7.20;99.90;;;;;;5056482;28;20516;-61
2022/01/04 12:47:50;;;;;;;21.27;17.07;;;7.20;99.90;;;;;;5056894;28;20520;-62
2022/01/04 12:50:18;;;;;;;19.83;15.40;;;7.20;99.90;;;;;;5056703;28;20888;-62
2022/01/04 12:52:52;;;;;;;18.17;16.37;;;7.30;99.90;;;;;;5056026;28;20775;-61
2022/01/04 12:55:19;;;;;;;19.33;17.13;;;7.20;99.90;;;;;;5056850;28;20910;-61
2022/01/04 12:57:53;;;;;;;19.23;17.17;;;7.20;99.90;;;;;;5056733;28;20519;-61
2022/01/04 13:00:23;;;;;;;19.40;15.17;;;7.20;99.90;;;;;;5056654;28;20509;-61
2022/01/04 13:02:51;;;;;;;22.20;17.43;;;7.10;99.90;;;;;;5054606;28;20520;-62
2022/01/04 13:05:20;;;;;;;19.83;17.73;;;7.10;99.90;;;;;;5055588;28;20755;-61
2022/01/04 13:07:47;;;;;;;18.70;16.50;;;7.20;99.90;;;;;;5056131;28;20470;-61